Terminal Aerodrome Forecast
Issued by NWS

Home | Current Version | Previous Version | Text Only | Print | Product List | Glossary On
Versions: 1 2 3 4 5 6 7 8 9 10 11 12 13 14 15
644
FTUS41 KILN 081408 AAA
TAFLCK
TAF AMD
KLCK 081408Z 0814/0912 24007KT 3SM -RASN OVC006
     FM081600 27008KT P6SM -SHRA SCT015 OVC025
     FM090200 27010KT 5SM -SN BR SCT007 OVC012=

USA.gov is the U.S. government's official web portal to all federal, state and local government web resources and services.